Time;durP1;ratioP1;P1;durP2;ratioP2;P2;SDS_P1;SDS_P2;PMS_P1;PMS_P2;Temp;Humidity;BMP_temperature;BMP_pressure;BME280_temperature;BME280_humidity;BME280_pressure;Samples;Min_cycle;Max_cycle;Signal;HPM_P1;HPM_P2
2021/08/06 00:01:54;;;;;;;6.30;5.70;;;;;;;;;;5021785;28;20394;-72
2021/08/06 00:04:20;;;;;;;7.27;5.03;;;;;;;;;;5010475;28;20477;-72
2021/08/06 00:06:45;;;;;;;6.75;5.72;;;;;;;;;;5017251;28;20733;-72
2021/08/06 00:09:10;;;;;;;6.40;5.75;;;;;;;;;;5034139;28;20252;-72
2021/08/06 00:11:35;;;;;;;9.48;5.63;;;;;;;;;;5014595;28;20190;-72
2021/08/06 00:14:01;;;;;;;5.80;5.30;;;;;;;;;;5028978;28;20300;-72
2021/08/06 00:16:27;;;;;;;6.35;5.75;;;;;;;;;;5031255;28;20181;-72
2021/08/06 00:18:52;;;;;;;5.93;5.18;;;;;;;;;;5034295;28;20210;-72
2021/08/06 00:21:17;;;;;;;6.03;5.20;;;;;;;;;;5037570;28;20577;-72
2021/08/06 00:23:43;;;;;;;5.60;5.10;;;;;;;;;;5036314;28;20423;-72
2021/08/06 00:26:09;;;;;;;6.00;5.43;;;;;;;;;;5034520;28;20220;-72
2021/08/06 00:28:34;;;;;;;6.40;5.05;;;;;;;;;;5037138;28;20591;-72
2021/08/06 00:30:59;;;;;;;6.53;4.83;;;;;;;;;;5038542;28;20189;-72
2021/08/06 00:33:24;;;;;;;6.30;4.78;;;;;;;;;;5020265;28;20433;-72
2021/08/06 00:35:49;;;;;;;6.10;4.85;;;;;;;;;;5034012;28;20210;-72
2021/08/06 00:38:15;;;;;;;5.53;4.97;;;;;;;;;;5037390;28;20185;-72
2021/08/06 00:40:40;;;;;;;5.70;4.27;;;;;;;;;;5032964;28;20474;-72
2021/08/06 00:43:05;;;;;;;5.77;4.30;;;;;;;;;;5035043;28;20509;-72
2021/08/06 00:45:30;;;;;;;4.57;4.10;;;;;;;;;;5033462;28;20939;-72
2021/08/06 00:47:55;;;;;;;4.50;4.10;;;;;;;;;;5034046;28;20190;-72
2021/08/06 00:50:21;;;;;;;5.88;4.00;;;;;;;;;;5015028;28;20201;-72
2021/08/06 00:52:46;;;;;;;4.75;3.97;;;;;;;;;;5036120;28;20186;-72
2021/08/06 00:55:11;;;;;;;7.00;4.40;;;;;;;;;;5038786;28;20204;-72
2021/08/06 00:57:36;;;;;;;4.70;3.58;;;;;;;;;;5018427;28;20458;-72
2021/08/06 01:00:03;;;;;;;3.72;3.42;;;;;;;;;;5036719;28;20702;-72
2021/08/06 01:02:38;;;;;;;4.10;3.30;;;;;;;;;;5040659;28;20182;-72
2021/08/06 01:05:06;;;;;;;4.07;3.33;;;;;;;;;;5034427;28;20188;-72
2021/08/06 01:07:41;;;;;;;3.58;3.03;;;;;;;;;;5037066;28;20186;-72
2021/08/06 01:10:07;;;;;;;3.70;2.70;;;;;;;;;;5022861;28;20229;-72
2021/08/06 01:12:35;;;;;;;3.50;2.72;;;;;;;;;;5014721;28;20182;-71
2021/08/06 01:15:02;;;;;;;4.18;2.72;;;;;;;;;;5010199;28;20228;-72
2021/08/06 01:17:29;;;;;;;4.65;2.90;;;;;;;;;;5031859;28;20178;-72
2021/08/06 01:20:18;;;;;;;3.20;2.60;;;;;;;;;;5012800;28;20576;-72
2021/08/06 01:22:49;;;;;;;3.17;2.70;;;;;;;;;;5024108;28;20213;-72
2021/08/06 01:25:14;;;;;;;4.32;2.80;;;;;;;;;;5038468;28;20224;-72
2021/08/06 01:27:40;;;;;;;3.40;3.10;;;;;;;;;;5029179;28;20205;-72
2021/08/06 01:30:07;;;;;;;3.55;2.63;;;;;;;;;;5046176;28;20440;-72
2021/08/06 01:32:32;;;;;;;5.75;3.10;;;;;;;;;;5030898;28;20725;-72
2021/08/06 01:34:57;;;;;;;5.35;2.92;;;;;;;;;;5044704;28;20241;-72
2021/08/06 01:37:23;;;;;;;3.40;3.10;;;;;;;;;;5014757;28;20270;-73
2021/08/06 01:39:48;;;;;;;4.35;3.22;;;;;;;;;;5031638;28;20288;-72
2021/08/06 01:42:31;;;;;;;4.15;3.00;;;;;;;;;;5034591;28;20687;-72
2021/08/06 01:44:57;;;;;;;3.70;3.15;;;;;;;;;;5012437;28;20184;-72
2021/08/06 01:47:24;;;;;;;4.35;3.67;;;;;;;;;;5019365;28;20602;-72
2021/08/06 01:49:54;;;;;;;3.60;3.30;;;;;;;;;;5043171;28;20202;-72
2021/08/06 01:52:21;;;;;;;4.32;3.25;;;;;;;;;;5040951;28;20197;-72
2021/08/06 01:54:48;;;;;;;3.83;3.53;;;;;;;;;;5037546;28;20217;-72
2021/08/06 01:57:13;;;;;;;3.53;3.22;;;;;;;;;;5033298;28;20185;-72
2021/08/06 01:59:39;;;;;;;4.13;3.60;;;;;;;;;;5013033;28;20202;-72
2021/08/06 02:02:04;;;;;;;3.97;3.38;;;;;;;;;;5032578;28;20183;-72
2021/08/06 02:04:30;;;;;;;3.03;2.72;;;;;;;;;;5029264;28;20629;-72
2021/08/06 02:06:55;;;;;;;3.72;3.40;;;;;;;;;;5035405;28;20231;-72
2021/08/06 02:09:21;;;;;;;3.97;3.50;;;;;;;;;;5033989;28;20210;-72
2021/08/06 02:11:47;;;;;;;4.00;3.45;;;;;;;;;;5029797;28;20178;-72
2021/08/06 02:14:14;;;;;;;3.63;2.90;;;;;;;;;;5013489;28;20640;-71
2021/08/06 02:16:43;;;;;;;4.70;3.20;;;;;;;;;;5030235;28;20228;-71
2021/08/06 02:19:09;;;;;;;6.70;2.90;;;;;;;;;;5031013;28;20202;-72
2021/08/06 02:21:36;;;;;;;3.45;2.53;;;;;;;;;;5032647;28;20235;-72
2021/08/06 02:24:04;;;;;;;3.60;2.88;;;;;;;;;;5028609;28;20485;-72
2021/08/06 02:26:30;;;;;;;3.45;2.50;;;;;;;;;;5018312;28;20186;-72
2021/08/06 02:28:56;;;;;;;2.92;2.60;;;;;;;;;;5036783;28;20204;-72
2021/08/06 02:31:22;;;;;;;3.95;3.10;;;;;;;;;;5032312;28;20253;-72
2021/08/06 02:33:47;;;;;;;2.85;2.50;;;;;;;;;;5029526;28;20231;-72
2021/08/06 02:36:12;;;;;;;3.47;2.78;;;;;;;;;;5033334;28;20184;-71
2021/08/06 02:38:38;;;;;;;4.90;2.90;;;;;;;;;;5027908;28;20651;-70
2021/08/06 02:41:04;;;;;;;5.13;2.90;;;;;;;;;;5045993;28;20259;-71
2021/08/06 02:43:29;;;;;;;4.40;3.63;;;;;;;;;;5015153;28;20229;-72
2021/08/06 02:45:54;;;;;;;4.05;2.55;;;;;;;;;;5034917;28;20182;-70
2021/08/06 02:48:19;;;;;;;4.47;2.47;;;;;;;;;;5035216;28;20260;-68
2021/08/06 02:50:45;;;;;;;3.15;2.58;;;;;;;;;;5028995;28;20598;-68
2021/08/06 02:53:10;;;;;;;4.95;2.60;;;;;;;;;;5029561;28;20269;-68
2021/08/06 02:55:36;;;;;;;4.68;2.35;;;;;;;;;;5029385;28;20202;-68
2021/08/06 02:58:01;;;;;;;3.70;2.50;;;;;;;;;;5033208;28;20174;-68
2021/08/06 03:00:26;;;;;;;3.67;2.50;;;;;;;;;;5033659;28;20198;-68
2021/08/06 03:02:51;;;;;;;3.60;2.67;;;;;;;;;;5017327;28;20589;-68
2021/08/06 03:05:16;;;;;;;4.17;2.53;;;;;;;;;;5013399;28;20212;-68
2021/08/06 03:07:51;;;;;;;3.88;2.60;;;;;;;;;;5034540;28;20433;-68
2021/08/06 03:10:19;;;;;;;2.58;2.38;;;;;;;;;;5025217;28;20236;-68
2021/08/06 03:12:45;;;;;;;3.05;2.67;;;;;;;;;;5028994;28;20174;-68
2021/08/06 03:15:10;;;;;;;3.92;2.42;;;;;;;;;;5028720;28;20228;-68
2021/08/06 03:17:36;;;;;;;3.05;2.75;;;;;;;;;;5035534;28;20182;-68
2021/08/06 03:20:01;;;;;;;3.85;2.88;;;;;;;;;;5035306;28;20205;-69
2021/08/06 03:22:26;;;;;;;3.10;2.80;;;;;;;;;;5017592;28;20582;-69
2021/08/06 03:24:51;;;;;;;3.87;2.50;;;;;;;;;;5031906;28;20197;-68
2021/08/06 03:27:16;;;;;;;3.27;2.53;;;;;;;;;;5038808;28;20887;-69
2021/08/06 03:29:41;;;;;;;3.83;2.63;;;;;;;;;;5032155;28;20477;-68
2021/08/06 03:32:07;;;;;;;5.05;2.78;;;;;;;;;;5040976;28;20454;-69
2021/08/06 03:34:32;;;;;;;3.03;2.27;;;;;;;;;;5035807;28;20202;-69
2021/08/06 03:36:57;;;;;;;4.00;2.60;;;;;;;;;;5031848;28;20407;-68
2021/08/06 03:39:22;;;;;;;3.97;2.47;;;;;;;;;;5014752;28;20447;-68
2021/08/06 03:41:47;;;;;;;3.23;2.03;;;;;;;;;;5039033;28;20185;-69
2021/08/06 03:44:12;;;;;;;4.53;2.37;;;;;;;;;;5035572;28;20445;-68
2021/08/06 03:46:38;;;;;;;3.20;2.50;;;;;;;;;;5037513;28;20438;-69
2021/08/06 03:49:03;;;;;;;3.47;2.88;;;;;;;;;;5035057;28;20447;-68
2021/08/06 03:51:28;;;;;;;3.25;2.50;;;;;;;;;;5036484;28;20178;-69
2021/08/06 03:53:53;;;;;;;3.33;2.72;;;;;;;;;;5037405;28;20177;-69
2021/08/06 03:56:18;;;;;;;4.03;2.43;;;;;;;;;;5033650;28;20174;-69
2021/08/06 03:58:43;;;;;;;3.83;2.85;;;;;;;;;;5037332;28;20826;-69
2021/08/06 04:01:09;;;;;;;2.87;2.60;;;;;;;;;;5032396;28;20180;-69
2021/08/06 04:03:34;;;;;;;5.00;2.90;;;;;;;;;;5032894;28;20494;-69
2021/08/06 04:05:59;;;;;;;3.80;2.83;;;;;;;;;;5028756;28;20177;-69
2021/08/06 04:08:25;;;;;;;4.07;2.70;;;;;;;;;;5035396;28;20300;-69
2021/08/06 04:10:50;;;;;;;2.40;2.15;;;;;;;;;;5019299;28;20202;-71
2021/08/06 04:13:15;;;;;;;2.70;2.50;;;;;;;;;;5034570;28;20189;-69
2021/08/06 04:15:40;;;;;;;4.93;2.50;;;;;;;;;;5031425;28;20214;-70
2021/08/06 04:18:05;;;;;;;5.13;3.00;;;;;;;;;;5034627;28;20489;-70
2021/08/06 04:20:30;;;;;;;2.72;2.28;;;;;;;;;;5032942;28;20534;-71
2021/08/06 04:22:56;;;;;;;3.38;2.90;;;;;;;;;;5033125;28;20182;-70
2021/08/06 04:25:21;;;;;;;3.47;3.00;;;;;;;;;;5020482;28;20205;-69
2021/08/06 04:27:46;;;;;;;3.08;2.70;;;;;;;;;;5034355;28;20419;-70
2021/08/06 04:30:12;;;;;;;3.08;2.70;;;;;;;;;;5020745;28;20292;-70
2021/08/06 04:32:37;;;;;;;3.50;2.53;;;;;;;;;;5032523;28;20545;-69
2021/08/06 04:35:03;;;;;;;3.17;2.85;;;;;;;;;;5036126;28;20202;-69
2021/08/06 04:37:29;;;;;;;4.18;2.90;;;;;;;;;;5030631;28;20204;-69
2021/08/06 04:39:54;;;;;;;2.45;2.25;;;;;;;;;;5027408;28;20683;-70
2021/08/06 04:42:19;;;;;;;2.43;2.23;;;;;;;;;;5015921;28;20881;-70
2021/08/06 04:44:44;;;;;;;2.53;2.13;;;;;;;;;;5034314;28;20448;-69
2021/08/06 04:47:09;;;;;;;2.88;1.70;;;;;;;;;;5031634;28;20190;-70
2021/08/06 04:49:35;;;;;;;1.90;1.80;;;;;;;;;;5037751;28;20289;-69
2021/08/06 04:52:00;;;;;;;4.53;2.40;;;;;;;;;;5033215;28;20220;-70
2021/08/06 04:54:25;;;;;;;2.70;2.17;;;;;;;;;;5034192;28;20202;-69
2021/08/06 04:56:51;;;;;;;5.13;2.00;;;;;;;;;;5034301;28;20174;-70
2021/08/06 04:59:16;;;;;;;2.65;2.38;;;;;;;;;;5034952;28;20194;-69
2021/08/06 05:01:41;;;;;;;3.90;2.83;;;;;;;;;;5011301;28;20190;-70
2021/08/06 05:04:06;;;;;;;2.30;2.10;;;;;;;;;;5035371;28;20441;-69
2021/08/06 05:06:32;;;;;;;2.95;2.75;;;;;;;;;;5032215;28;20182;-70
2021/08/06 05:08:57;;;;;;;2.85;2.65;;;;;;;;;;5034758;28;20202;-70
2021/08/06 05:11:22;;;;;;;3.33;3.03;;;;;;;;;;5031113;28;20206;-70
2021/08/06 05:13:47;;;;;;;3.20;2.97;;;;;;;;;;5028003;28;20174;-69
2021/08/06 05:16:13;;;;;;;3.47;3.03;;;;;;;;;;5037328;28;20225;-70
2021/08/06 05:18:38;;;;;;;3.47;3.17;;;;;;;;;;5035152;28;20321;-70
2021/08/06 05:21:03;;;;;;;2.95;2.75;;;;;;;;;;5029661;28;20611;-70
2021/08/06 05:23:29;;;;;;;3.78;3.08;;;;;;;;;;5038487;28;20175;-70
2021/08/06 05:25:54;;;;;;;4.13;3.60;;;;;;;;;;5032721;28;20186;-70
2021/08/06 05:28:19;;;;;;;4.00;3.60;;;;;;;;;;5013330;28;20190;-68
2021/08/06 05:30:45;;;;;;;3.95;3.55;;;;;;;;;;5039369;28;20197;-69
2021/08/06 05:33:10;;;;;;;3.80;3.45;;;;;;;;;;5036176;28;20260;-69
2021/08/06 05:35:35;;;;;;;4.13;3.72;;;;;;;;;;5038351;28;20206;-69
2021/08/06 05:38:00;;;;;;;3.38;3.08;;;;;;;;;;5035726;28;20181;-69
2021/08/06 05:40:26;;;;;;;4.95;3.88;;;;;;;;;;5028053;28;20218;-69
2021/08/06 05:42:51;;;;;;;4.10;3.50;;;;;;;;;;5035173;28;20178;-70
2021/08/06 05:45:16;;;;;;;4.05;3.60;;;;;;;;;;5037238;28;20677;-70
2021/08/06 05:47:45;;;;;;;4.60;3.50;;;;;;;;;;5034345;28;20186;-69
2021/08/06 05:50:11;;;;;;;4.03;3.45;;;;;;;;;;5031803;28;20443;-70
2021/08/06 05:52:36;;;;;;;5.00;3.58;;;;;;;;;;5031680;28;20185;-70
2021/08/06 05:55:01;;;;;;;6.90;4.67;;;;;;;;;;5031132;28;20209;-69
2021/08/06 05:57:26;;;;;;;5.80;4.00;;;;;;;;;;5017306;28;20423;-70
2021/08/06 05:59:51;;;;;;;3.60;3.30;;;;;;;;;;5031240;28;20619;-70
2021/08/06 06:02:16;;;;;;;4.00;3.53;;;;;;;;;;5015878;28;20443;-70
2021/08/06 06:04:42;;;;;;;3.97;3.63;;;;;;;;;;5009408;28;20462;-70
2021/08/06 06:07:07;;;;;;;4.43;3.37;;;;;;;;;;5027995;28;20431;-69
2021/08/06 06:09:32;;;;;;;3.90;3.60;;;;;;;;;;5030281;28;20490;-71
2021/08/06 06:11:57;;;;;;;4.20;3.47;;;;;;;;;;5030164;28;20188;-71
2021/08/06 06:14:22;;;;;;;4.00;3.60;;;;;;;;;;5030458;28;20277;-70
2021/08/06 06:16:47;;;;;;;5.47;4.45;;;;;;;;;;5033964;28;20521;-71
2021/08/06 06:19:13;;;;;;;5.07;4.55;;;;;;;;;;5034684;28;20198;-71
2021/08/06 06:21:38;;;;;;;5.72;4.28;;;;;;;;;;5016155;28;20206;-70
2021/08/06 06:24:03;;;;;;;4.60;4.20;;;;;;;;;;5030591;28;20249;-70
2021/08/06 06:26:29;;;;;;;7.88;4.85;;;;;;;;;;5031269;28;20223;-70
2021/08/06 06:28:54;;;;;;;7.40;4.70;;;;;;;;;;5025661;28;20236;-70
2021/08/06 06:31:19;;;;;;;5.20;3.83;;;;;;;;;;5034849;28;20924;-71
2021/08/06 06:33:44;;;;;;;5.73;4.53;;;;;;;;;;5030974;28;20418;-72
2021/08/06 06:36:09;;;;;;;5.50;4.60;;;;;;;;;;5030704;28;20880;-71
2021/08/06 06:38:35;;;;;;;6.50;4.60;;;;;;;;;;5025554;28;20447;-71
2021/08/06 06:41:00;;;;;;;5.57;4.47;;;;;;;;;;5030022;28;21215;-71
2021/08/06 06:43:25;;;;;;;5.78;4.35;;;;;;;;;;5033282;28;20205;-70
2021/08/06 06:45:50;;;;;;;5.47;4.20;;;;;;;;;;5031903;28;20181;-70
2021/08/06 06:48:16;;;;;;;4.88;4.25;;;;;;;;;;5032324;28;20174;-71
2021/08/06 06:50:41;;;;;;;5.78;4.25;;;;;;;;;;5029898;28;20205;-70
2021/08/06 06:53:07;;;;;;;5.18;3.30;;;;;;;;;;5013422;28;20228;-71
2021/08/06 06:55:32;;;;;;;8.45;4.25;;;;;;;;;;5033827;28;20291;-71
2021/08/06 06:57:58;;;;;;;9.85;4.10;;;;;;;;;;5016148;28;20178;-71
2021/08/06 07:00:24;;;;;;;4.00;3.60;;;;;;;;;;5030408;28;20683;-71
2021/08/06 07:02:50;;;;;;;3.85;3.45;;;;;;;;;;5029857;28;20174;-72
2021/08/06 07:05:15;;;;;;;4.72;4.00;;;;;;;;;;5025012;28;20617;-71
2021/08/06 07:07:40;;;;;;;4.95;4.45;;;;;;;;;;5026825;28;20547;-71
2021/08/06 07:10:08;;;;;;;5.50;4.72;;;;;;;;;;5031702;28;20213;-72
2021/08/06 07:12:33;;;;;;;5.15;4.35;;;;;;;;;;5029436;28;20677;-71
2021/08/06 07:15:00;;;;;;;8.23;4.50;;;;;;;;;;5033604;28;20284;-71
2021/08/06 07:17:26;;;;;;;5.43;4.43;;;;;;;;;;5030981;28;20182;-71
2021/08/06 07:19:51;;;;;;;5.27;4.13;;;;;;;;;;5040872;28;20197;-69
2021/08/06 07:22:16;;;;;;;6.07;3.60;;;;;;;;;;5045082;28;21228;-71
2021/08/06 07:24:41;;;;;;;5.63;3.53;;;;;;;;;;5013344;28;20435;-74
2021/08/06 07:27:06;;;;;;;3.90;3.50;;;;;;;;;;5018527;28;20814;-70
2021/08/06 07:29:31;;;;;;;3.67;2.80;;;;;;;;;;5018682;28;20436;-70
2021/08/06 07:31:57;;;;;;;4.25;2.92;;;;;;;;;;4998709;28;20273;-69
2021/08/06 07:34:22;;;;;;;4.70;3.42;;;;;;;;;;5021022;28;20738;-71
2021/08/06 07:36:47;;;;;;;4.50;3.30;;;;;;;;;;5020570;28;20190;-70
2021/08/06 07:39:12;;;;;;;4.82;3.33;;;;;;;;;;5023036;28;20281;-72
2021/08/06 07:41:37;;;;;;;5.35;3.45;;;;;;;;;;5021840;28;20264;-70
2021/08/06 07:44:03;;;;;;;8.23;3.30;;;;;;;;;;5018576;28;20265;-72
2021/08/06 07:46:28;;;;;;;5.50;3.05;;;;;;;;;;5020412;28;20564;-72
2021/08/06 07:48:53;;;;;;;7.75;3.17;;;;;;;;;;5021043;28;20210;-71
2021/08/06 07:51:18;;;;;;;4.95;3.00;;;;;;;;;;5020853;28;20261;-71
2021/08/06 07:53:44;;;;;;;5.60;3.03;;;;;;;;;;5018811;28;20597;-71
2021/08/06 07:56:09;;;;;;;4.50;2.73;;;;;;;;;;5021021;28;20474;-72
2021/08/06 07:58:34;;;;;;;3.92;2.70;;;;;;;;;;5019403;28;20435;-71
2021/08/06 08:00:59;;;;;;;5.07;3.03;;;;;;;;;;5021041;28;20542;-72
2021/08/06 08:03:24;;;;;;;5.85;3.05;;;;;;;;;;5023655;28;20842;-72
2021/08/06 08:05:50;;;;;;;5.00;3.25;;;;;;;;;;5025051;28;20194;-70
2021/08/06 08:08:15;;;;;;;7.13;2.67;;;;;;;;;;5027998;28;20185;-71
2021/08/06 08:10:40;;;;;;;6.53;2.63;;;;;;;;;;5022027;28;20279;-72
2021/08/06 08:13:05;;;;;;;6.90;2.22;;;;;;;;;;5008232;28;20236;-71
2021/08/06 08:15:31;;;;;;;2.75;2.05;;;;;;;;;;5023328;28;20190;-70
2021/08/06 08:17:56;;;;;;;7.07;2.42;;;;;;;;;;5023842;28;20458;-72
2021/08/06 08:20:21;;;;;;;4.20;2.30;;;;;;;;;;5005425;28;20297;-73
2021/08/06 08:22:46;;;;;;;4.53;2.20;;;;;;;;;;5005121;28;20182;-71
2021/08/06 08:25:12;;;;;;;5.00;2.50;;;;;;;;;;5034582;28;20445;-72
2021/08/06 08:27:37;;;;;;;4.55;2.67;;;;;;;;;;5024935;28;20281;-69
2021/08/06 08:30:03;;;;;;;4.53;2.40;;;;;;;;;;5028217;28;20581;-72
2021/08/06 08:32:28;;;;;;;5.18;2.13;;;;;;;;;;5026334;28;20654;-72
2021/08/06 08:34:54;;;;;;;4.40;2.03;;;;;;;;;;5021410;28;20293;-71
2021/08/06 08:37:19;;;;;;;3.95;1.65;;;;;;;;;;5029491;28;20426;-71
2021/08/06 08:39:44;;;;;;;4.03;1.73;;;;;;;;;;5024448;28;20206;-72
2021/08/06 08:42:09;;;;;;;3.60;1.70;;;;;;;;;;5029638;28;20433;-70
2021/08/06 08:44:36;;;;;;;5.82;1.40;;;;;;;;;;5026495;28;20210;-69
2021/08/06 08:47:02;;;;;;;2.90;1.73;;;;;;;;;;5023374;28;20207;-69
2021/08/06 08:49:32;;;;;;;4.93;1.25;;;;;;;;;;5009937;28;20236;-69
2021/08/06 08:51:57;;;;;;;2.58;1.80;;;;;;;;;;5023443;28;20182;-71
2021/08/06 08:54:22;;;;;;;2.88;1.63;;;;;;;;;;5022227;28;20197;-71
2021/08/06 08:56:48;;;;;;;3.53;1.65;;;;;;;;;;5027391;28;20185;-70
2021/08/06 08:59:13;;;;;;;4.93;1.70;;;;;;;;;;5022272;28;20236;-71
2021/08/06 09:01:38;;;;;;;3.87;1.87;;;;;;;;;;5028027;28;20173;-70
2021/08/06 09:04:17;;;;;;;5.20;2.00;;;;;;;;;;5034182;28;20432;-70
2021/08/06 09:06:43;;;;;;;5.15;2.08;;;;;;;;;;5025796;28;20178;-70
2021/08/06 09:09:13;;;;;;;4.75;2.17;;;;;;;;;;5022514;28;20198;-68
2021/08/06 09:11:38;;;;;;;5.53;2.15;;;;;;;;;;5024167;28;20193;-71
2021/08/06 09:14:17;;;;;;;5.07;2.67;;;;;;;;;;5023967;28;20181;-71
2021/08/06 09:16:56;;;;;;;4.32;1.98;;;;;;;;;;5019473;28;20916;-69
2021/08/06 09:19:21;;;;;;;3.90;2.40;;;;;;;;;;5020504;28;22787;-71
2021/08/06 09:21:48;;;;;;;3.30;2.30;;;;;;;;;;5021273;28;20177;-71
2021/08/06 09:24:13;;;;;;;6.20;2.30;;;;;;;;;;5023006;28;20182;-71
2021/08/06 09:26:42;;;;;;;2.53;2.20;;;;;;;;;;5021020;28;20197;-73
2021/08/06 09:29:19;;;;;;;4.38;2.75;;;;;;;;;;5006180;28;20442;-72
2021/08/06 09:31:50;;;;;;;3.95;2.67;;;;;;;;;;5022260;28;20540;-71
2021/08/06 09:34:24;;;;;;;7.28;2.05;;;;;;;;;;5021899;28;20174;-70
2021/08/06 09:36:51;;;;;;;3.90;1.70;;;;;;;;;;5024242;28;20188;-70
2021/08/06 09:39:17;;;;;;;7.53;2.08;;;;;;;;;;5006714;28;20260;-70
2021/08/06 09:41:43;;;;;;;4.82;1.90;;;;;;;;;;5033846;28;20183;-70
2021/08/06 09:44:13;;;;;;;4.05;2.10;;;;;;;;;;5022331;28;20173;-69
2021/08/06 09:46:38;;;;;;;4.05;2.00;;;;;;;;;;5025050;28;20182;-70
2021/08/06 09:49:06;;;;;;;3.30;2.05;;;;;;;;;;5027057;28;20268;-71
2021/08/06 09:51:35;;;;;;;5.97;1.98;;;;;;;;;;5021160;28;20209;-70
2021/08/06 09:54:00;;;;;;;2.65;1.90;;;;;;;;;;5025232;28;20192;-70
2021/08/06 09:56:25;;;;;;;3.83;2.23;;;;;;;;;;5024889;28;20198;-68
2021/08/06 09:58:57;;;;;;;4.38;2.50;;;;;;;;;;5023632;28;20443;-70
2021/08/06 10:01:22;;;;;;;6.82;2.17;;;;;;;;;;5037279;28;20185;-71
2021/08/06 10:03:47;;;;;;;5.07;2.23;;;;;;;;;;5015718;28;20276;-70
2021/08/06 10:06:14;;;;;;;4.23;2.47;;;;;;;;;;5027667;28;20422;-68
2021/08/06 10:08:40;;;;;;;4.45;1.90;;;;;;;;;;5020381;28;20931;-70
2021/08/06 10:11:05;;;;;;;4.10;1.88;;;;;;;;;;5024937;28;20568;-70
2021/08/06 10:13:31;;;;;;;3.35;2.17;;;;;;;;;;5024633;28;20197;-68
2021/08/06 10:15:57;;;;;;;5.68;2.60;;;;;;;;;;5017616;28;20288;-73
2021/08/06 10:18:22;;;;;;;5.30;2.42;;;;;;;;;;5024241;28;20279;-69
2021/08/06 10:20:48;;;;;;;2.53;1.73;;;;;;;;;;5008373;28;20165;-70
2021/08/06 10:23:13;;;;;;;2.10;1.70;;;;;;;;;;5017547;28;20182;-71
2021/08/06 10:25:39;;;;;;;3.28;1.92;;;;;;;;;;5019846;28;20538;-71
2021/08/06 10:28:04;;;;;;;2.88;1.50;;;;;;;;;;5016871;28;20178;-71
2021/08/06 10:30:31;;;;;;;2.72;1.40;;;;;;;;;;5019675;28;20209;-71
2021/08/06 10:33:06;;;;;;;3.67;1.83;;;;;;;;;;5016080;28;20179;-68
2021/08/06 10:35:53;;;;;;;3.15;1.60;;;;;;;;;;5014594;28;20221;-71
2021/08/06 10:38:44;;;;;;;3.13;1.60;;;;;;;;;;5016925;28;20546;-70
2021/08/06 10:41:12;;;;;;;3.10;1.33;;;;;;;;;;5013384;28;20202;-71
2021/08/06 10:43:39;;;;;;;2.40;1.67;;;;;;;;;;5028993;28;20266;-71
2021/08/06 10:46:04;;;;;;;2.30;1.40;;;;;;;;;;5011171;28;20265;-69
2021/08/06 10:48:37;;;;;;;4.43;1.90;;;;;;;;;;5014752;28;20663;-70
2021/08/06 10:51:23;;;;;;;8.55;2.42;;;;;;;;;;5014808;28;20255;-71
2021/08/06 10:53:54;;;;;;;2.20;1.55;;;;;;;;;;5015005;28;20538;-70
2021/08/06 10:56:21;;;;;;;2.88;1.60;;;;;;;;;;5010392;28;20268;-71
2021/08/06 10:58:53;;;;;;;2.67;1.55;;;;;;;;;;5009493;28;20198;-68
2021/08/06 11:01:24;;;;;;;2.55;1.65;;;;;;;;;;5009859;28;20182;-72
2021/08/06 11:03:53;;;;;;;3.70;1.55;;;;;;;;;;5012052;28;20197;-70
2021/08/06 11:06:37;;;;;;;3.58;1.45;;;;;;;;;;5029573;28;20188;-70
2021/08/06 11:09:03;;;;;;;1.10;0.95;;;;;;;;;;5018547;28;20268;-69
2021/08/06 11:11:42;;;;;;;3.65;1.33;;;;;;;;;;5011070;28;20209;-69
2021/08/06 11:14:07;;;;;;;4.05;1.33;;;;;;;;;;5017375;28;20185;-72
2021/08/06 11:16:33;;;;;;;7.70;1.88;;;;;;;;;;5010847;28;20174;-73
2021/08/06 11:18:58;;;;;;;6.38;1.70;;;;;;;;;;5011549;28;20676;-71
2021/08/06 11:21:23;;;;;;;6.65;1.65;;;;;;;;;;5021714;28;20670;-75
2021/08/06 11:23:56;;;;;;;5.53;1.53;;;;;;;;;;5009671;28;20222;-73
2021/08/06 11:26:21;;;;;;;2.28;1.48;;;;;;;;;;5016482;28;20803;-73
2021/08/06 11:28:46;;;;;;;1.87;1.30;;;;;;;;;;5014499;28;20202;-73
2021/08/06 11:31:15;;;;;;;4.77;1.30;;;;;;;;;;5012765;28;20431;-68
2021/08/06 11:33:40;;;;;;;3.03;1.73;;;;;;;;;;5021610;28;20430;-69
2021/08/06 11:36:13;;;;;;;1.40;1.30;;;;;;;;;;5012881;28;20733;-71
2021/08/06 11:38:38;;;;;;;1.77;1.67;;;;;;;;;;5023075;28;20189;-71
2021/08/06 11:41:03;;;;;;;3.05;1.73;;;;;;;;;;5022031;28;20179;-71
2021/08/06 11:43:29;;;;;;;3.87;3.13;;;;;;;;;;5020458;28;20191;-69
2021/08/06 11:46:05;;;;;;;7.07;6.07;;;;;;;;;;5002887;28;20450;-71
2021/08/06 11:48:43;;;;;;;4.50;3.90;;;;;;;;;;5022467;28;20258;-68
2021/08/06 11:51:08;;;;;;;4.60;2.17;;;;;;;;;;4998830;28;20229;-71
2021/08/06 11:53:34;;;;;;;5.90;1.93;;;;;;;;;;5016696;28;20194;-70
2021/08/06 11:55:59;;;;;;;2.93;2.00;;;;;;;;;;5016814;28;20526;-69
2021/08/06 11:58:35;;;;;;;2.97;2.28;;;;;;;;;;5019819;28;20443;-70
2021/08/06 12:01:00;;;;;;;4.95;3.22;;;;;;;;;;5022266;28;20182;-68
2021/08/06 12:03:26;;;;;;;3.78;3.10;;;;;;;;;;5014939;28;20197;-68
2021/08/06 12:05:52;;;;;;;6.13;2.38;;;;;;;;;;5018285;28;20198;-69
2021/08/06 12:08:25;;;;;;;3.05;2.53;;;;;;;;;;5014877;28;22432;-70
2021/08/06 12:11:10;;;;;;;2.42;1.90;;;;;;;;;;5002837;28;20220;-70
2021/08/06 12:13:35;;;;;;;3.75;2.30;;;;;;;;;;5022416;28;20557;-72
2021/08/06 12:16:06;;;;;;;3.72;3.08;;;;;;;;;;5022082;28;20206;-69
2021/08/06 12:18:31;;;;;;;3.90;2.55;;;;;;;;;;5016119;28;20433;-69
2021/08/06 12:20:59;;;;;;;4.03;2.10;;;;;;;;;;5014411;28;20174;-71
2021/08/06 12:23:25;;;;;;;3.83;2.10;;;;;;;;;;5021801;28;20179;-69
2021/08/06 12:26:02;;;;;;;2.40;2.10;;;;;;;;;;5016815;28;20189;-71
2021/08/06 12:28:28;;;;;;;3.05;2.50;;;;;;;;;;5016483;28;20200;-70
2021/08/06 12:31:10;;;;;;;2.40;2.20;;;;;;;;;;5019362;28;20179;-72
2021/08/06 12:33:36;;;;;;;2.28;2.08;;;;;;;;;;5017828;28;20197;-72
2021/08/06 12:36:20;;;;;;;3.53;1.95;;;;;;;;;;5021162;28;20194;-69
2021/08/06 12:38:47;;;;;;;3.45;1.95;;;;;;;;;;5021798;28;20244;-70
2021/08/06 12:41:25;;;;;;;3.00;2.20;;;;;;;;;;5017263;28;20194;-69
2021/08/06 12:44:09;;;;;;;3.38;1.60;;;;;;;;;;5018927;28;20186;-73
2021/08/06 12:46:34;;;;;;;2.05;1.77;;;;;;;;;;5016330;28;20186;-72
2021/08/06 12:49:08;;;;;;;4.37;2.30;;;;;;;;;;5023159;28;20202;-70
2021/08/06 12:51:34;;;;;;;2.05;1.60;;;;;;;;;;5022741;28;20480;-70
2021/08/06 12:53:59;;;;;;;3.75;2.33;;;;;;;;;;5034969;28;20243;-71
2021/08/06 12:56:24;;;;;;;2.40;1.83;;;;;;;;;;5013092;28;20647;-71
2021/08/06 12:59:09;;;;;;;4.43;1.97;;;;;;;;;;5018321;28;20451;-72
2021/08/06 13:01:37;;;;;;;2.55;1.65;;;;;;;;;;5016621;28;20507;-72
2021/08/06 13:04:02;;;;;;;2.30;1.00;;;;;;;;;;5001409;28;20289;-71
2021/08/06 13:06:43;;;;;;;3.53;1.40;;;;;;;;;;5013903;28;20293;-70
2021/08/06 13:09:08;;;;;;;4.13;2.22;;;;;;;;;;5014229;28;20603;-74
2021/08/06 13:11:34;;;;;;;1.80;1.50;;;;;;;;;;5015207;28;20289;-71
2021/08/06 13:13:59;;;;;;;3.83;2.00;;;;;;;;;;5017129;28;20427;-71
2021/08/06 13:16:24;;;;;;;3.27;1.50;;;;;;;;;;5015426;28;20475;-72
2021/08/06 13:18:50;;;;;;;2.03;1.10;;;;;;;;;;5019986;28;20537;-73
2021/08/06 13:21:15;;;;;;;3.00;1.10;;;;;;;;;;5019814;28;20566;-73
2021/08/06 13:23:41;;;;;;;3.20;0.80;;;;;;;;;;5013685;28;20182;-71
2021/08/06 13:26:08;;;;;;;2.80;1.05;;;;;;;;;;5013364;28;20223;-70
2021/08/06 13:28:34;;;;;;;4.53;0.90;;;;;;;;;;5011675;28;20186;-71
2021/08/06 13:31:00;;;;;;;1.92;1.10;;;;;;;;;;4999662;28;20602;-71
2021/08/06 13:33:26;;;;;;;1.75;0.80;;;;;;;;;;5002835;28;20183;-71
2021/08/06 13:35:52;;;;;;;3.97;1.13;;;;;;;;;;5019459;28;20301;-72
2021/08/06 13:38:18;;;;;;;2.75;1.20;;;;;;;;;;5036068;28;20270;-70
2021/08/06 13:40:43;;;;;;;4.10;1.05;;;;;;;;;;5013262;28;20206;-71
2021/08/06 13:43:08;;;;;;;2.13;0.80;;;;;;;;;;5021415;28;20198;-71
2021/08/06 13:45:34;;;;;;;4.55;1.00;;;;;;;;;;5014784;28;20190;-70
2021/08/06 13:47:59;;;;;;;3.15;0.95;;;;;;;;;;5013716;28;20512;-71
2021/08/06 13:50:25;;;;;;;2.67;0.80;;;;;;;;;;5000207;28;22559;-70
2021/08/06 13:52:50;;;;;;;0.98;0.82;;;;;;;;;;5014576;28;20191;-72
2021/08/06 13:55:15;;;;;;;2.17;0.90;;;;;;;;;;5018183;28;20237;-71
2021/08/06 13:57:41;;;;;;;3.17;0.80;;;;;;;;;;5033293;28;20298;-71
2021/08/06 14:00:08;;;;;;;1.87;0.80;;;;;;;;;;4999542;28;20212;-72
2021/08/06 14:02:34;;;;;;;3.30;1.17;;;;;;;;;;5018850;28;20827;-73
2021/08/06 14:05:00;;;;;;;3.35;0.70;;;;;;;;;;5012366;28;20182;-73
2021/08/06 14:07:25;;;;;;;1.63;0.77;;;;;;;;;;5030077;28;20197;-70
2021/08/06 14:09:50;;;;;;;3.80;0.83;;;;;;;;;;5011057;28;20764;-71
2021/08/06 14:12:15;;;;;;;3.08;0.82;;;;;;;;;;5047376;22;20513;-72
2021/08/06 14:14:41;;;;;;;3.88;0.85;;;;;;;;;;5036470;28;20208;-72
2021/08/06 14:17:07;;;;;;;2.35;1.45;;;;;;;;;;5035979;28;20219;-72
2021/08/06 14:19:32;;;;;;;4.07;1.00;;;;;;;;;;5040305;28;20200;-72
2021/08/06 14:21:57;;;;;;;6.90;1.27;;;;;;;;;;5024467;28;20698;-72
2021/08/06 14:24:22;;;;;;;2.53;1.15;;;;;;;;;;5017380;28;20435;-72
2021/08/06 14:26:48;;;;;;;4.55;1.02;;;;;;;;;;5016571;28;20181;-71
2021/08/06 14:29:13;;;;;;;4.68;0.93;;;;;;;;;;5016689;28;20178;-74
2021/08/06 14:31:38;;;;;;;4.30;1.00;;;;;;;;;;5020282;28;20262;-71
2021/08/06 14:34:03;;;;;;;2.08;0.73;;;;;;;;;;5019761;28;20553;-72
2021/08/06 14:36:28;;;;;;;3.92;0.93;;;;;;;;;;5017580;28;20577;-73
2021/08/06 14:38:54;;;;;;;3.08;0.93;;;;;;;;;;5022925;28;20224;-71
2021/08/06 14:41:19;;;;;;;3.72;0.90;;;;;;;;;;5015668;28;20886;-70